sensor_id;sensor_type;location;lat;lon;timestamp;P1;durP1;ratioP1;P2;durP2;ratioP2
55800;SDS011;41730;51.960;20.158;2023-01-29T00:02:27;11.20;;;5.90;;
55800;SDS011;41730;51.960;20.158;2023-01-29T00:05:00;10.00;;;5.70;;
55800;SDS011;41730;51.960;20.158;2023-01-29T00:07:52;9.90;;;6.40;;
55800;SDS011;41730;51.960;20.158;2023-01-29T00:10:25;13.40;;;6.80;;
55800;SDS011;41730;51.960;20.158;2023-01-29T00:12:57;10.80;;;6.00;;
55800;SDS011;41730;51.960;20.158;2023-01-29T00:15:29;12.70;;;6.80;;
55800;SDS011;41730;51.960;20.158;2023-01-29T00:18:01;12.30;;;6.40;;
55800;SDS011;41730;51.960;20.158;2023-01-29T00:20:32;11.60;;;5.90;;
55800;SDS011;41730;51.960;20.158;2023-01-29T00:23:04;10.90;;;6.40;;
55800;SDS011;41730;51.960;20.158;2023-01-29T00:25:35;10.40;;;5.70;;
55800;SDS011;41730;51.960;20.158;2023-01-29T00:28:07;9.90;;;6.50;;
55800;SDS011;41730;51.960;20.158;2023-01-29T00:30:39;11.80;;;6.40;;
55800;SDS011;41730;51.960;20.158;2023-01-29T00:33:10;11.60;;;7.10;;
55800;SDS011;41730;51.960;20.158;2023-01-29T00:35:42;11.90;;;6.10;;
55800;SDS011;41730;51.960;20.158;2023-01-29T00:38:13;12.10;;;6.60;;
55800;SDS011;41730;51.960;20.158;2023-01-29T00:40:45;14.00;;;6.80;;
55800;SDS011;41730;51.960;20.158;2023-01-29T00:43:33;13.80;;;7.10;;
55800;SDS011;41730;51.960;20.158;2023-01-29T00:46:22;13.90;;;7.30;;
55800;SDS011;41730;51.960;20.158;2023-01-29T00:48:54;12.70;;;7.00;;
55800;SDS011;41730;51.960;20.158;2023-01-29T00:51:27;11.50;;;6.90;;
55800;SDS011;41730;51.960;20.158;2023-01-29T00:53:59;10.60;;;6.70;;
55800;SDS011;41730;51.960;20.158;2023-01-29T00:56:32;12.20;;;6.60;;
55800;SDS011;41730;51.960;20.158;2023-01-29T00:59:04;11.70;;;7.00;;
55800;SDS011;41730;51.960;20.158;2023-01-29T01:01:35;11.80;;;6.70;;
55800;SDS011;41730;51.960;20.158;2023-01-29T01:04:24;12.30;;;7.50;;
55800;SDS011;41730;51.960;20.158;2023-01-29T01:06:56;12.20;;;7.60;;
55800;SDS011;41730;51.960;20.158;2023-01-29T01:09:28;10.60;;;6.70;;
55800;SDS011;41730;51.960;20.158;2023-01-29T01:12:17;12.00;;;7.50;;
55800;SDS011;41730;51.960;20.158;2023-01-29T01:14:49;12.60;;;7.70;;
55800;SDS011;41730;51.960;20.158;2023-01-29T01:17:20;12.50;;;7.60;;
55800;SDS011;41730;51.960;20.158;2023-01-29T01:19:52;12.00;;;7.40;;
55800;SDS011;41730;51.960;20.158;2023-01-29T01:22:23;12.10;;;7.50;;
55800;SDS011;41730;51.960;20.158;2023-01-29T01:24:55;12.30;;;7.30;;
55800;SDS011;41730;51.960;20.158;2023-01-29T01:27:27;11.60;;;8.00;;
55800;SDS011;41730;51.960;20.158;2023-01-29T01:29:59;14.70;;;7.90;;
55800;SDS011;41730;51.960;20.158;2023-01-29T01:32:30;14.00;;;7.90;;
55800;SDS011;41730;51.960;20.158;2023-01-29T01:35:02;14.80;;;7.40;;
55800;SDS011;41730;51.960;20.158;2023-01-29T01:37:34;10.80;;;7.10;;
55800;SDS011;41730;51.960;20.158;2023-01-29T01:40:09;12.20;;;7.00;;
55800;SDS011;41730;51.960;20.158;2023-01-29T01:42:45;10.30;;;6.50;;
55800;SDS011;41730;51.960;20.158;2023-01-29T01:45:19;10.90;;;6.20;;
55800;SDS011;41730;51.960;20.158;2023-01-29T01:47:54;11.00;;;6.30;;
55800;SDS011;41730;51.960;20.158;2023-01-29T01:53:03;12.50;;;7.10;;
55800;SDS011;41730;51.960;20.158;2023-01-29T01:55:38;13.80;;;7.20;;
55800;SDS011;41730;51.960;20.158;2023-01-29T01:58:16;12.00;;;6.10;;
55800;SDS011;41730;51.960;20.158;2023-01-29T02:00:51;11.60;;;6.30;;
55800;SDS011;41730;51.960;20.158;2023-01-29T02:03:23;10.50;;;6.20;;
55800;SDS011;41730;51.960;20.158;2023-01-29T02:06:16;10.40;;;6.50;;
55800;SDS011;41730;51.960;20.158;2023-01-29T02:09:06;10.20;;;6.30;;
55800;SDS011;41730;51.960;20.158;2023-01-29T02:12:03;8.50;;;5.80;;
55800;SDS011;41730;51.960;20.158;2023-01-29T02:14:37;8.90;;;5.20;;
55800;SDS011;41730;51.960;20.158;2023-01-29T02:17:11;9.30;;;5.40;;
55800;SDS011;41730;51.960;20.158;2023-01-29T02:19:49;8.90;;;5.90;;
55800;SDS011;41730;51.960;20.158;2023-01-29T02:22:32;7.80;;;5.10;;
55800;SDS011;41730;51.960;20.158;2023-01-29T02:28:20;8.80;;;6.20;;
55800;SDS011;41730;51.960;20.158;2023-01-29T02:31:00;11.70;;;5.90;;
55800;SDS011;41730;51.960;20.158;2023-01-29T02:33:40;9.30;;;6.00;;
55800;SDS011;41730;51.960;20.158;2023-01-29T02:36:49;10.70;;;6.40;;
55800;SDS011;41730;51.960;20.158;2023-01-29T02:39:34;11.20;;;5.90;;
55800;SDS011;41730;51.960;20.158;2023-01-29T02:42:12;9.80;;;5.90;;
55800;SDS011;41730;51.960;20.158;2023-01-29T02:44:49;10.40;;;6.20;;
55800;SDS011;41730;51.960;20.158;2023-01-29T02:47:32;9.90;;;5.30;;
55800;SDS011;41730;51.960;20.158;2023-01-29T02:50:12;12.40;;;6.20;;
55800;SDS011;41730;51.960;20.158;2023-01-29T02:52:50;11.40;;;6.00;;
55800;SDS011;41730;51.960;20.158;2023-01-29T02:55:29;10.60;;;6.20;;
55800;SDS011;41730;51.960;20.158;2023-01-29T02:58:08;10.80;;;6.30;;
55800;SDS011;41730;51.960;20.158;2023-01-29T03:00:46;9.80;;;5.60;;
55800;SDS011;41730;51.960;20.158;2023-01-29T03:05:55;9.70;;;5.80;;
55800;SDS011;41730;51.960;20.158;2023-01-29T03:08:33;9.80;;;5.50;;
55800;SDS011;41730;51.960;20.158;2023-01-29T03:11:12;10.20;;;6.00;;
55800;SDS011;41730;51.960;20.158;2023-01-29T03:13:47;9.40;;;5.60;;
55800;SDS011;41730;51.960;20.158;2023-01-29T03:16:22;9.10;;;5.70;;
55800;SDS011;41730;51.960;20.158;2023-01-29T03:19:02;11.60;;;5.70;;
55800;SDS011;41730;51.960;20.158;2023-01-29T03:21:39;8.90;;;5.50;;
55800;SDS011;41730;51.960;20.158;2023-01-29T03:24:25;9.70;;;5.40;;
55800;SDS011;41730;51.960;20.158;2023-01-29T03:27:22;9.00;;;5.10;;
55800;SDS011;41730;51.960;20.158;2023-01-29T03:30:15;8.80;;;5.70;;
55800;SDS011;41730;51.960;20.158;2023-01-29T03:33:06;10.00;;;5.70;;
55800;SDS011;41730;51.960;20.158;2023-01-29T03:35:43;10.60;;;5.50;;
55800;SDS011;41730;51.960;20.158;2023-01-29T03:38:20;10.10;;;5.50;;
55800;SDS011;41730;51.960;20.158;2023-01-29T03:40:57;8.60;;;5.50;;
55800;SDS011;41730;51.960;20.158;2023-01-29T03:43:34;9.10;;;5.50;;
55800;SDS011;41730;51.960;20.158;2023-01-29T03:46:15;9.50;;;5.90;;
55800;SDS011;41730;51.960;20.158;2023-01-29T03:48:57;9.50;;;5.80;;
55800;SDS011;41730;51.960;20.158;2023-01-29T03:51:36;9.90;;;5.40;;
55800;SDS011;41730;51.960;20.158;2023-01-29T03:54:17;10.10;;;6.00;;
55800;SDS011;41730;51.960;20.158;2023-01-29T03:56:56;9.70;;;5.50;;
55800;SDS011;41730;51.960;20.158;2023-01-29T03:59:34;11.60;;;6.30;;
55800;SDS011;41730;51.960;20.158;2023-01-29T04:02:11;9.40;;;5.60;;
55800;SDS011;41730;51.960;20.158;2023-01-29T04:04:55;8.50;;;5.30;;
55800;SDS011;41730;51.960;20.158;2023-01-29T04:07:30;10.40;;;6.20;;
55800;SDS011;41730;51.960;20.158;2023-01-29T04:10:04;11.30;;;6.20;;
55800;SDS011;41730;51.960;20.158;2023-01-29T04:12:40;9.50;;;5.90;;
55800;SDS011;41730;51.960;20.158;2023-01-29T04:15:16;10.00;;;5.50;;
55800;SDS011;41730;51.960;20.158;2023-01-29T04:17:50;11.30;;;6.50;;
55800;SDS011;41730;51.960;20.158;2023-01-29T04:22:54;10.10;;;6.40;;
55800;SDS011;41730;51.960;20.158;2023-01-29T04:25:26;9.60;;;6.00;;
55800;SDS011;41730;51.960;20.158;2023-01-29T04:28:06;11.60;;;6.50;;
55800;SDS011;41730;51.960;20.158;2023-01-29T04:30:46;7.90;;;5.20;;
55800;SDS011;41730;51.960;20.158;2023-01-29T04:33:24;10.70;;;6.40;;
55800;SDS011;41730;51.960;20.158;2023-01-29T04:36:08;9.50;;;6.40;;
55800;SDS011;41730;51.960;20.158;2023-01-29T04:39:05;10.50;;;6.10;;
55800;SDS011;41730;51.960;20.158;2023-01-29T04:41:54;11.10;;;7.10;;
55800;SDS011;41730;51.960;20.158;2023-01-29T04:44:42;10.40;;;7.00;;
55800;SDS011;41730;51.960;20.158;2023-01-29T04:47:28;11.10;;;6.90;;
55800;SDS011;41730;51.960;20.158;2023-01-29T04:50:10;14.30;;;7.70;;
55800;SDS011;41730;51.960;20.158;2023-01-29T04:52:46;12.70;;;7.60;;
55800;SDS011;41730;51.960;20.158;2023-01-29T04:55:27;13.90;;;8.00;;
55800;SDS011;41730;51.960;20.158;2023-01-29T04:58:06;17.00;;;9.50;;
55800;SDS011;41730;51.960;20.158;2023-01-29T05:00:43;14.20;;;8.60;;
55800;SDS011;41730;51.960;20.158;2023-01-29T05:03:18;16.30;;;9.10;;
55800;SDS011;41730;51.960;20.158;2023-01-29T05:05:53;12.90;;;8.30;;
55800;SDS011;41730;51.960;20.158;2023-01-29T05:08:27;15.30;;;8.10;;
55800;SDS011;41730;51.960;20.158;2023-01-29T05:11:00;12.50;;;7.20;;
55800;SDS011;41730;51.960;20.158;2023-01-29T05:13:33;11.80;;;7.50;;
55800;SDS011;41730;51.960;20.158;2023-01-29T05:16:09;13.40;;;8.30;;
55800;SDS011;41730;51.960;20.158;2023-01-29T05:18:45;13.20;;;7.70;;
55800;SDS011;41730;51.960;20.158;2023-01-29T05:21:17;12.40;;;7.90;;
55800;SDS011;41730;51.960;20.158;2023-01-29T05:26:43;14.70;;;8.10;;
55800;SDS011;41730;51.960;20.158;2023-01-29T05:29:33;12.50;;;8.00;;
55800;SDS011;41730;51.960;20.158;2023-01-29T05:32:04;14.80;;;8.60;;
55800;SDS011;41730;51.960;20.158;2023-01-29T05:34:36;16.60;;;8.00;;
55800;SDS011;41730;51.960;20.158;2023-01-29T05:37:08;12.80;;;7.90;;
55800;SDS011;41730;51.960;20.158;2023-01-29T05:39:39;17.80;;;8.20;;
55800;SDS011;41730;51.960;20.158;2023-01-29T05:42:11;14.70;;;7.50;;
55800;SDS011;41730;51.960;20.158;2023-01-29T05:44:43;13.10;;;7.60;;
55800;SDS011;41730;51.960;20.158;2023-01-29T05:47:17;13.20;;;7.70;;
55800;SDS011;41730;51.960;20.158;2023-01-29T05:49:49;13.00;;;7.90;;
55800;SDS011;41730;51.960;20.158;2023-01-29T05:52:20;14.80;;;8.50;;
55800;SDS011;41730;51.960;20.158;2023-01-29T05:54:52;13.70;;;7.30;;
55800;SDS011;41730;51.960;20.158;2023-01-29T05:57:23;16.00;;;7.90;;
55800;SDS011;41730;51.960;20.158;2023-01-29T05:59:55;12.40;;;7.70;;
55800;SDS011;41730;51.960;20.158;2023-01-29T06:02:26;11.80;;;7.30;;
55800;SDS011;41730;51.960;20.158;2023-01-29T06:04:59;11.80;;;7.10;;
55800;SDS011;41730;51.960;20.158;2023-01-29T06:07:32;12.90;;;7.30;;
55800;SDS011;41730;51.960;20.158;2023-01-29T06:10:04;10.80;;;6.90;;
55800;SDS011;41730;51.960;20.158;2023-01-29T06:12:37;11.90;;;7.30;;
55800;SDS011;41730;51.960;20.158;2023-01-29T06:15:09;12.00;;;7.30;;
55800;SDS011;41730;51.960;20.158;2023-01-29T06:17:42;12.70;;;8.10;;
55800;SDS011;41730;51.960;20.158;2023-01-29T06:20:14;14.70;;;7.20;;
55800;SDS011;41730;51.960;20.158;2023-01-29T06:22:46;13.00;;;8.00;;
55800;SDS011;41730;51.960;20.158;2023-01-29T06:25:17;12.40;;;7.50;;
55800;SDS011;41730;51.960;20.158;2023-01-29T06:27:50;12.50;;;7.70;;
55800;SDS011;41730;51.960;20.158;2023-01-29T06:30:25;12.20;;;7.00;;
55800;SDS011;41730;51.960;20.158;2023-01-29T06:32:59;13.60;;;7.30;;
55800;SDS011;41730;51.960;20.158;2023-01-29T06:35:31;12.00;;;6.80;;
55800;SDS011;41730;51.960;20.158;2023-01-29T06:38:02;11.80;;;6.90;;
55800;SDS011;41730;51.960;20.158;2023-01-29T06:40:33;12.80;;;7.40;;
55800;SDS011;41730;51.960;20.158;2023-01-29T06:43:06;15.50;;;8.20;;
55800;SDS011;41730;51.960;20.158;2023-01-29T06:45:38;13.90;;;7.50;;
55800;SDS011;41730;51.960;20.158;2023-01-29T06:48:14;11.90;;;7.20;;
55800;SDS011;41730;51.960;20.158;2023-01-29T06:50:46;15.20;;;8.20;;
55800;SDS011;41730;51.960;20.158;2023-01-29T06:53:17;12.40;;;6.80;;
55800;SDS011;41730;51.960;20.158;2023-01-29T06:55:53;14.70;;;7.20;;
55800;SDS011;41730;51.960;20.158;2023-01-29T06:58:24;13.30;;;7.20;;
55800;SDS011;41730;51.960;20.158;2023-01-29T07:01:02;15.00;;;8.20;;
55800;SDS011;41730;51.960;20.158;2023-01-29T07:03:35;15.10;;;7.30;;
55800;SDS011;41730;51.960;20.158;2023-01-29T07:06:09;13.00;;;7.30;;
55800;SDS011;41730;51.960;20.158;2023-01-29T07:08:41;12.80;;;7.40;;
55800;SDS011;41730;51.960;20.158;2023-01-29T07:11:12;15.80;;;8.40;;
55800;SDS011;41730;51.960;20.158;2023-01-29T07:13:44;14.20;;;8.30;;
55800;SDS011;41730;51.960;20.158;2023-01-29T07:16:15;15.90;;;8.70;;
55800;SDS011;41730;51.960;20.158;2023-01-29T07:18:47;14.10;;;7.90;;
55800;SDS011;41730;51.960;20.158;2023-01-29T07:21:19;12.80;;;8.00;;
55800;SDS011;41730;51.960;20.158;2023-01-29T07:23:50;14.00;;;9.00;;
55800;SDS011;41730;51.960;20.158;2023-01-29T07:26:23;18.70;;;9.10;;
55800;SDS011;41730;51.960;20.158;2023-01-29T07:28:54;19.90;;;10.00;;
55800;SDS011;41730;51.960;20.158;2023-01-29T07:31:26;17.20;;;9.60;;
55800;SDS011;41730;51.960;20.158;2023-01-29T07:33:57;15.30;;;8.90;;
55800;SDS011;41730;51.960;20.158;2023-01-29T07:36:29;15.40;;;8.70;;
55800;SDS011;41730;51.960;20.158;2023-01-29T07:39:00;15.10;;;8.80;;
55800;SDS011;41730;51.960;20.158;2023-01-29T07:41:32;15.00;;;8.90;;
55800;SDS011;41730;51.960;20.158;2023-01-29T07:44:03;18.60;;;10.10;;
55800;SDS011;41730;51.960;20.158;2023-01-29T07:46:36;15.70;;;9.50;;
55800;SDS011;41730;51.960;20.158;2023-01-29T07:49:08;16.30;;;8.70;;
55800;SDS011;41730;51.960;20.158;2023-01-29T07:51:39;18.10;;;9.10;;
55800;SDS011;41730;51.960;20.158;2023-01-29T07:54:11;16.50;;;8.70;;
55800;SDS011;41730;51.960;20.158;2023-01-29T07:56:42;14.80;;;8.40;;
55800;SDS011;41730;51.960;20.158;2023-01-29T07:59:13;15.60;;;9.30;;
55800;SDS011;41730;51.960;20.158;2023-01-29T08:01:45;20.40;;;9.80;;
55800;SDS011;41730;51.960;20.158;2023-01-29T08:04:16;17.10;;;7.70;;
55800;SDS011;41730;51.960;20.158;2023-01-29T08:06:49;14.30;;;8.20;;
55800;SDS011;41730;51.960;20.158;2023-01-29T08:09:20;18.70;;;8.90;;
55800;SDS011;41730;51.960;20.158;2023-01-29T08:11:52;17.50;;;8.90;;
55800;SDS011;41730;51.960;20.158;2023-01-29T08:14:23;16.00;;;8.40;;
55800;SDS011;41730;51.960;20.158;2023-01-29T08:16:55;16.60;;;8.60;;
55800;SDS011;41730;51.960;20.158;2023-01-29T08:19:26;14.00;;;7.70;;
55800;SDS011;41730;51.960;20.158;2023-01-29T08:21:58;13.10;;;8.00;;
55800;SDS011;41730;51.960;20.158;2023-01-29T08:24:29;12.80;;;7.80;;
55800;SDS011;41730;51.960;20.158;2023-01-29T08:27:20;19.10;;;9.40;;
55800;SDS011;41730;51.960;20.158;2023-01-29T08:29:52;17.70;;;9.70;;
55800;SDS011;41730;51.960;20.158;2023-01-29T08:32:23;15.20;;;9.10;;
55800;SDS011;41730;51.960;20.158;2023-01-29T08:34:55;18.60;;;8.50;;
55800;SDS011;41730;51.960;20.158;2023-01-29T08:37:26;12.60;;;7.70;;
55800;SDS011;41730;51.960;20.158;2023-01-29T08:39:58;15.10;;;8.30;;
55800;SDS011;41730;51.960;20.158;2023-01-29T08:42:30;16.50;;;8.20;;
55800;SDS011;41730;51.960;20.158;2023-01-29T08:45:01;14.00;;;7.20;;
55800;SDS011;41730;51.960;20.158;2023-01-29T08:47:33;14.90;;;7.10;;
55800;SDS011;41730;51.960;20.158;2023-01-29T08:50:05;15.00;;;8.10;;
55800;SDS011;41730;51.960;20.158;2023-01-29T08:52:38;13.10;;;7.70;;
55800;SDS011;41730;51.960;20.158;2023-01-29T08:55:10;14.50;;;7.10;;
55800;SDS011;41730;51.960;20.158;2023-01-29T08:57:42;14.80;;;8.00;;
55800;SDS011;41730;51.960;20.158;2023-01-29T09:00:14;14.10;;;7.50;;
55800;SDS011;41730;51.960;20.158;2023-01-29T09:02:46;15.80;;;7.80;;
55800;SDS011;41730;51.960;20.158;2023-01-29T09:05:18;15.80;;;8.50;;
55800;SDS011;41730;51.960;20.158;2023-01-29T09:07:50;15.80;;;8.10;;
55800;SDS011;41730;51.960;20.158;2023-01-29T09:10:21;13.50;;;7.30;;
55800;SDS011;41730;51.960;20.158;2023-01-29T09:12:54;18.20;;;8.90;;
55800;SDS011;41730;51.960;20.158;2023-01-29T09:15:26;14.90;;;7.50;;
55800;SDS011;41730;51.960;20.158;2023-01-29T09:17:57;13.60;;;7.80;;
55800;SDS011;41730;51.960;20.158;2023-01-29T09:20:33;14.90;;;8.10;;
55800;SDS011;41730;51.960;20.158;2023-01-29T09:23:06;15.30;;;7.60;;
55800;SDS011;41730;51.960;20.158;2023-01-29T09:25:41;14.50;;;7.30;;
55800;SDS011;41730;51.960;20.158;2023-01-29T09:28:12;18.00;;;8.00;;
55800;SDS011;41730;51.960;20.158;2023-01-29T09:30:45;17.00;;;8.50;;
55800;SDS011;41730;51.960;20.158;2023-01-29T09:33:17;18.10;;;8.90;;
55800;SDS011;41730;51.960;20.158;2023-01-29T09:35:48;15.40;;;7.60;;
55800;SDS011;41730;51.960;20.158;2023-01-29T09:38:20;18.40;;;8.40;;
55800;SDS011;41730;51.960;20.158;2023-01-29T09:40:54;15.70;;;8.30;;
55800;SDS011;41730;51.960;20.158;2023-01-29T09:43:39;16.10;;;8.50;;
55800;SDS011;41730;51.960;20.158;2023-01-29T09:46:17;11.90;;;6.80;;
55800;SDS011;41730;51.960;20.158;2023-01-29T09:48:56;14.70;;;7.70;;
55800;SDS011;41730;51.960;20.158;2023-01-29T09:51:33;16.50;;;8.60;;
55800;SDS011;41730;51.960;20.158;2023-01-29T09:54:13;13.00;;;7.10;;
55800;SDS011;41730;51.960;20.158;2023-01-29T09:56:48;15.60;;;9.10;;
55800;SDS011;41730;51.960;20.158;2023-01-29T09:59:22;19.30;;;10.80;;
55800;SDS011;41730;51.960;20.158;2023-01-29T10:01:58;12.40;;;7.40;;
55800;SDS011;41730;51.960;20.158;2023-01-29T10:07:33;15.90;;;8.20;;
55800;SDS011;41730;51.960;20.158;2023-01-29T10:10:38;23.70;;;12.90;;
55800;SDS011;41730;51.960;20.158;2023-01-29T10:13:23;23.90;;;11.90;;
55800;SDS011;41730;51.960;20.158;2023-01-29T10:16:04;23.60;;;15.10;;
55800;SDS011;41730;51.960;20.158;2023-01-29T10:21:58;24.30;;;15.00;;
55800;SDS011;41730;51.960;20.158;2023-01-29T10:24:51;24.60;;;14.30;;
55800;SDS011;41730;51.960;20.158;2023-01-29T10:27:26;19.90;;;11.60;;
55800;SDS011;41730;51.960;20.158;2023-01-29T10:30:05;22.10;;;11.50;;
55800;SDS011;41730;51.960;20.158;2023-01-29T10:32:47;19.70;;;11.40;;
55800;SDS011;41730;51.960;20.158;2023-01-29T10:35:21;19.40;;;10.30;;
55800;SDS011;41730;51.960;20.158;2023-01-29T10:37:56;16.90;;;9.60;;
55800;SDS011;41730;51.960;20.158;2023-01-29T10:40:38;21.70;;;10.80;;
55800;SDS011;41730;51.960;20.158;2023-01-29T10:43:16;17.60;;;9.70;;
55800;SDS011;41730;51.960;20.158;2023-01-29T10:45:58;18.70;;;9.70;;
55800;SDS011;41730;51.960;20.158;2023-01-29T10:48:44;21.80;;;12.00;;
55800;SDS011;41730;51.960;20.158;2023-01-29T10:51:28;25.00;;;11.20;;
55800;SDS011;41730;51.960;20.158;2023-01-29T10:54:27;21.20;;;10.70;;
55800;SDS011;41730;51.960;20.158;2023-01-29T10:57:12;22.60;;;10.80;;
55800;SDS011;41730;51.960;20.158;2023-01-29T10:59:54;19.20;;;10.00;;
55800;SDS011;41730;51.960;20.158;2023-01-29T11:02:37;20.10;;;10.70;;
55800;SDS011;41730;51.960;20.158;2023-01-29T11:05:18;18.90;;;9.70;;
55800;SDS011;41730;51.960;20.158;2023-01-29T11:07:59;21.00;;;12.00;;
55800;SDS011;41730;51.960;20.158;2023-01-29T11:10:36;23.40;;;11.50;;
55800;SDS011;41730;51.960;20.158;2023-01-29T11:13:15;23.70;;;11.60;;
55800;SDS011;41730;51.960;20.158;2023-01-29T11:15:48;24.20;;;14.30;;
55800;SDS011;41730;51.960;20.158;2023-01-29T11:18:22;24.50;;;12.40;;
55800;SDS011;41730;51.960;20.158;2023-01-29T11:21:00;21.70;;;12.30;;
55800;SDS011;41730;51.960;20.158;2023-01-29T11:23:33;23.50;;;11.70;;
55800;SDS011;41730;51.960;20.158;2023-01-29T11:26:05;25.40;;;12.20;;
55800;SDS011;41730;51.960;20.158;2023-01-29T11:28:42;29.60;;;14.30;;
55800;SDS011;41730;51.960;20.158;2023-01-29T11:31:28;23.80;;;12.70;;
55800;SDS011;41730;51.960;20.158;2023-01-29T11:34:12;26.60;;;14.10;;
55800;SDS011;41730;51.960;20.158;2023-01-29T11:36:50;25.30;;;13.50;;
55800;SDS011;41730;51.960;20.158;2023-01-29T11:39:28;30.00;;;14.40;;
55800;SDS011;41730;51.960;20.158;2023-01-29T11:42:03;29.50;;;15.60;;
55800;SDS011;41730;51.960;20.158;2023-01-29T11:44:47;28.90;;;15.50;;
55800;SDS011;41730;51.960;20.158;2023-01-29T11:47:20;24.90;;;13.00;;
55800;SDS011;41730;51.960;20.158;2023-01-29T11:49:56;31.30;;;14.00;;
55800;SDS011;41730;51.960;20.158;2023-01-29T11:52:35;25.60;;;12.90;;
55800;SDS011;41730;51.960;20.158;2023-01-29T11:55:14;25.30;;;13.80;;
55800;SDS011;41730;51.960;20.158;2023-01-29T11:57:50;25.50;;;13.20;;
55800;SDS011;41730;51.960;20.158;2023-01-29T12:00:26;24.10;;;12.60;;
55800;SDS011;41730;51.960;20.158;2023-01-29T12:03:02;27.10;;;14.70;;
55800;SDS011;41730;51.960;20.158;2023-01-29T12:05:41;24.80;;;12.90;;
55800;SDS011;41730;51.960;20.158;2023-01-29T12:08:25;25.60;;;13.00;;
55800;SDS011;41730;51.960;20.158;2023-01-29T12:11:10;28.10;;;13.60;;
55800;SDS011;41730;51.960;20.158;2023-01-29T12:13:45;24.20;;;12.50;;
55800;SDS011;41730;51.960;20.158;2023-01-29T12:16:26;22.80;;;12.70;;
55800;SDS011;41730;51.960;20.158;2023-01-29T12:19:08;31.90;;;14.80;;
55800;SDS011;41730;51.960;20.158;2023-01-29T12:21:49;25.10;;;13.10;;
55800;SDS011;41730;51.960;20.158;2023-01-29T12:24:32;25.80;;;13.20;;
55800;SDS011;41730;51.960;20.158;2023-01-29T12:27:16;27.00;;;13.90;;
55800;SDS011;41730;51.960;20.158;2023-01-29T12:29:54;29.50;;;14.80;;
55800;SDS011;41730;51.960;20.158;2023-01-29T12:32:33;30.40;;;16.30;;
55800;SDS011;41730;51.960;20.158;2023-01-29T12:35:15;30.20;;;14.60;;
55800;SDS011;41730;51.960;20.158;2023-01-29T12:37:53;26.90;;;13.80;;
55800;SDS011;41730;51.960;20.158;2023-01-29T12:40:31;28.20;;;14.30;;
55800;SDS011;41730;51.960;20.158;2023-01-29T12:43:12;31.50;;;16.30;;
55800;SDS011;41730;51.960;20.158;2023-01-29T12:45:48;25.30;;;13.70;;
55800;SDS011;41730;51.960;20.158;2023-01-29T12:48:23;28.80;;;14.80;;
55800;SDS011;41730;51.960;20.158;2023-01-29T12:51:00;25.80;;;14.00;;
55800;SDS011;41730;51.960;20.158;2023-01-29T12:53:38;27.60;;;14.40;;
55800;SDS011;41730;51.960;20.158;2023-01-29T12:56:15;29.40;;;15.80;;
55800;SDS011;41730;51.960;20.158;2023-01-29T12:58:55;32.50;;;17.10;;
55800;SDS011;41730;51.960;20.158;2023-01-29T13:01:30;31.10;;;16.00;;
55800;SDS011;41730;51.960;20.158;2023-01-29T13:04:08;34.60;;;16.40;;
55800;SDS011;41730;51.960;20.158;2023-01-29T13:06:45;31.60;;;16.70;;
55800;SDS011;41730;51.960;20.158;2023-01-29T13:09:27;30.20;;;16.00;;
55800;SDS011;41730;51.960;20.158;2023-01-29T13:12:02;40.40;;;18.60;;
55800;SDS011;41730;51.960;20.158;2023-01-29T13:14:41;30.00;;;16.70;;
55800;SDS011;41730;51.960;20.158;2023-01-29T13:17:17;31.10;;;16.30;;
55800;SDS011;41730;51.960;20.158;2023-01-29T13:19:54;36.70;;;17.70;;
55800;SDS011;41730;51.960;20.158;2023-01-29T13:22:32;31.10;;;16.10;;
55800;SDS011;41730;51.960;20.158;2023-01-29T13:25:12;30.10;;;15.00;;
55800;SDS011;41730;51.960;20.158;2023-01-29T13:27:48;29.10;;;15.60;;
55800;SDS011;41730;51.960;20.158;2023-01-29T13:30:27;31.40;;;15.90;;
55800;SDS011;41730;51.960;20.158;2023-01-29T13:33:00;30.60;;;14.60;;
55800;SDS011;41730;51.960;20.158;2023-01-29T13:35:38;35.00;;;15.70;;
55800;SDS011;41730;51.960;20.158;2023-01-29T13:38:21;26.50;;;14.90;;
55800;SDS011;41730;51.960;20.158;2023-01-29T13:40:59;30.50;;;15.60;;
55800;SDS011;41730;51.960;20.158;2023-01-29T13:43:34;28.60;;;15.50;;
55800;SDS011;41730;51.960;20.158;2023-01-29T13:46:08;27.70;;;13.90;;
55800;SDS011;41730;51.960;20.158;2023-01-29T13:48:48;32.00;;;15.50;;
55800;SDS011;41730;51.960;20.158;2023-01-29T13:51:22;32.90;;;17.20;;
55800;SDS011;41730;51.960;20.158;2023-01-29T13:54:02;28.30;;;14.60;;
55800;SDS011;41730;51.960;20.158;2023-01-29T13:56:45;24.80;;;14.10;;
55800;SDS011;41730;51.960;20.158;2023-01-29T14:02:23;24.80;;;13.50;;
55800;SDS011;41730;51.960;20.158;2023-01-29T14:08:04;23.90;;;13.50;;
55800;SDS011;41730;51.960;20.158;2023-01-29T14:14:03;27.90;;;14.50;;
55800;SDS011;41730;51.960;20.158;2023-01-29T14:17:12;30.50;;;16.00;;
55800;SDS011;41730;51.960;20.158;2023-01-29T14:19:47;37.10;;;17.10;;
55800;SDS011;41730;51.960;20.158;2023-01-29T14:22:20;28.30;;;15.80;;
55800;SDS011;41730;51.960;20.158;2023-01-29T14:24:55;29.70;;;15.50;;
55800;SDS011;41730;51.960;20.158;2023-01-29T14:27:30;28.20;;;15.10;;
55800;SDS011;41730;51.960;20.158;2023-01-29T14:30:07;30.70;;;16.10;;
55800;SDS011;41730;51.960;20.158;2023-01-29T14:32:44;30.20;;;15.70;;
55800;SDS011;41730;51.960;20.158;2023-01-29T14:35:20;26.20;;;14.30;;
55800;SDS011;41730;51.960;20.158;2023-01-29T14:37:59;31.80;;;16.40;;
55800;SDS011;41730;51.960;20.158;2023-01-29T14:40:35;27.40;;;14.10;;
55800;SDS011;41730;51.960;20.158;2023-01-29T14:43:13;30.60;;;16.30;;
55800;SDS011;41730;51.960;20.158;2023-01-29T14:45:49;36.50;;;17.40;;
55800;SDS011;41730;51.960;20.158;2023-01-29T14:48:38;34.60;;;17.40;;
55800;SDS011;41730;51.960;20.158;2023-01-29T14:51:19;32.40;;;16.40;;
55800;SDS011;41730;51.960;20.158;2023-01-29T14:53:57;35.50;;;18.20;;
55800;SDS011;41730;51.960;20.158;2023-01-29T14:56:34;33.90;;;17.80;;
55800;SDS011;41730;51.960;20.158;2023-01-29T14:59:12;35.00;;;16.90;;
55800;SDS011;41730;51.960;20.158;2023-01-29T15:01:50;35.90;;;20.80;;
55800;SDS011;41730;51.960;20.158;2023-01-29T15:04:24;36.40;;;18.40;;
55800;SDS011;41730;51.960;20.158;2023-01-29T15:07:00;32.30;;;17.30;;
55800;SDS011;41730;51.960;20.158;2023-01-29T15:09:38;32.20;;;16.80;;
55800;SDS011;41730;51.960;20.158;2023-01-29T15:12:22;29.50;;;17.00;;
55800;SDS011;41730;51.960;20.158;2023-01-29T15:15:04;29.80;;;16.10;;
55800;SDS011;41730;51.960;20.158;2023-01-29T15:17:48;30.00;;;16.00;;
55800;SDS011;41730;51.960;20.158;2023-01-29T15:20:37;29.60;;;15.50;;
55800;SDS011;41730;51.960;20.158;2023-01-29T15:23:26;34.40;;;17.00;;
55800;SDS011;41730;51.960;20.158;2023-01-29T15:26:01;35.40;;;17.70;;
55800;SDS011;41730;51.960;20.158;2023-01-29T15:28:36;28.80;;;14.90;;
55800;SDS011;41730;51.960;20.158;2023-01-29T15:31:12;32.90;;;16.20;;
55800;SDS011;41730;51.960;20.158;2023-01-29T15:33:47;27.40;;;15.70;;
55800;SDS011;41730;51.960;20.158;2023-01-29T15:36:23;33.40;;;16.60;;
55800;SDS011;41730;51.960;20.158;2023-01-29T15:39:14;31.20;;;16.30;;
55800;SDS011;41730;51.960;20.158;2023-01-29T15:42:03;31.00;;;16.60;;
55800;SDS011;41730;51.960;20.158;2023-01-29T15:44:44;37.60;;;17.70;;